Time;durP1;ratioP1;P1;durP2;ratioP2;P2;SDS_P1;SDS_P2;PMS_P1;PMS_P2;Temp;Humidity;BMP_temperature;BMP_pressure;BME280_temperature;BME280_humidity;BME280_pressure;Samples;Min_cycle;Max_cycle;Signal;HPM_P1;HPM_P2
2023/05/08 00:01:37;;;;;;;6.03;3.83;;;13.70;99.90;;;;;;20640913;28;20046;-42
2023/05/08 00:11:38;;;;;;;7.55;3.08;;;13.60;99.90;;;;;;20633665;28;20077;-43
2023/05/08 00:21:39;;;;;;;6.50;3.72;;;13.40;99.90;;;;;;20631650;28;20548;-42
2023/05/08 00:31:40;;;;;;;6.35;3.72;;;13.30;99.90;;;;;;20643267;28;20046;-43
2023/05/08 00:41:42;;;;;;;6.68;3.65;;;13.20;99.90;;;;;;20629238;28;20038;-43
2023/05/08 00:51:45;;;;;;;5.75;3.83;;;13.10;99.90;;;;;;20638888;28;20044;-43
2023/05/08 01:01:48;;;;;;;5.60;2.95;;;13.00;99.90;;;;;;20649146;28;21358;-42
2023/05/08 01:12:05;;;;;;;5.05;3.33;;;12.90;99.90;;;;;;20644771;28;20533;-43
2023/05/08 01:22:29;;;;;;;4.93;2.90;;;12.70;99.90;;;;;;20647298;28;20501;-43
2023/05/08 01:32:42;;;;;;;3.80;1.98;;;12.80;99.90;;;;;;20644256;28;20394;-43
2023/05/08 01:42:52;;;;;;;5.43;2.42;;;12.70;99.90;;;;;;20635465;28;20680;-43
2023/05/08 01:53:06;;;;;;;3.72;2.20;;;12.60;99.90;;;;;;20652604;28;20512;-42
2023/05/08 02:03:09;;;;;;;3.30;2.13;;;12.50;99.90;;;;;;20656379;28;20050;-43
2023/05/08 02:13:12;;;;;;;3.55;2.13;;;12.50;99.90;;;;;;20657762;28;20045;-44
2023/05/08 02:23:15;;;;;;;6.07;2.67;;;12.30;99.90;;;;;;20648811;28;20038;-44
2023/05/08 02:33:17;;;;;;;3.92;2.60;;;12.30;99.90;;;;;;20657801;28;20563;-44
2023/05/08 02:43:19;;;;;;;4.60;2.72;;;12.20;99.90;;;;;;20662389;28;20497;-43
2023/05/08 02:53:26;;;;;;;5.18;3.35;;;12.00;99.90;;;;;;20649531;28;20053;-42
2023/05/08 03:03:35;;;;;;;;;;;12.00;99.90;;;;;;20657870;28;20048;-43
2023/05/08 03:13:39;;;;;;;5.70;3.20;;;12.10;99.90;;;;;;20652314;28;20304;-43
2023/05/08 03:23:42;;;;;;;4.75;2.83;;;12.00;99.90;;;;;;20646051;28;20041;-44
2023/05/08 03:33:44;;;;;;;5.40;3.05;;;12.00;99.90;;;;;;20613530;28;20108;-43
2023/05/08 03:44:06;;;;;;;8.10;2.85;;;11.80;99.90;;;;;;20597095;28;20501;-44
2023/05/08 03:54:07;;;;;;;6.18;3.15;;;11.80;99.90;;;;;;20650290;28;20041;-44
2023/05/08 04:04:35;;;;;;;5.88;3.50;;;11.90;99.90;;;;;;20634640;28;20054;-43
2023/05/08 04:14:49;;;;;;;4.30;2.85;;;11.90;99.90;;;;;;20635589;28;20046;-43
2023/05/08 04:24:53;;;;;;;5.82;3.38;;;11.80;99.90;;;;;;20634274;28;20492;-43
2023/05/08 04:34:55;;;;;;;7.07;3.35;;;11.90;99.90;;;;;;20620027;28;20156;-42
2023/05/08 04:45:16;;;;;;;8.27;4.57;;;11.90;99.90;;;;;;20654783;28;20231;-42
2023/05/08 04:55:17;;;;;;;9.70;5.80;;;12.10;99.90;;;;;;20636773;28;20055;-44
2023/05/08 05:05:18;;;;;;;9.98;6.13;;;12.40;99.90;;;;;;20635265;28;20057;-42
2023/05/08 05:15:19;;;;;;;14.65;8.68;;;12.50;99.90;;;;;;20637939;28;20517;-42
2023/05/08 05:25:20;;;;;;;16.60;9.55;;;12.70;99.90;;;;;;20650017;28;20072;-42
2023/05/08 05:35:21;;;;;;;18.42;10.85;;;12.80;99.90;;;;;;20651436;28;20041;-43
2023/05/08 05:45:29;;;;;;;15.43;8.57;;;12.90;99.90;;;;;;20651424;28;20573;-43
2023/05/08 05:55:30;;;;;;;22.38;10.98;;;13.10;99.90;;;;;;20654664;28;21053;-42
2023/05/08 06:05:31;;;;;;;20.33;10.20;;;13.10;99.90;;;;;;20612967;28;20400;-43
2023/05/08 06:15:33;;;;;;;26.25;12.15;;;13.20;99.90;;;;;;20650523;28;20038;-41
2023/05/08 06:25:34;;;;;;;24.88;13.02;;;13.40;99.90;;;;;;20655836;28;20532;-41
2023/05/08 06:35:35;;;;;;;25.88;13.65;;;13.50;99.90;;;;;;20649826;28;20853;-41
2023/05/08 06:45:36;;;;;;;35.63;16.40;;;13.70;99.90;;;;;;20665563;28;20049;-41
2023/05/08 06:55:37;;;;;;;35.08;17.00;;;13.90;99.90;;;;;;20661131;28;20038;-41
2023/05/08 07:05:38;;;;;;;42.92;18.83;;;14.10;99.90;;;;;;20651144;28;20050;-41
2023/05/08 07:15:39;;;;;;;34.03;17.23;;;14.20;99.90;;;;;;20653631;28;20034;-41
2023/05/08 07:25:40;;;;;;;51.28;21.48;;;14.30;99.90;;;;;;20642701;28;20130;-41
2023/05/08 07:35:42;;;;;;;51.35;22.92;;;14.50;99.90;;;;;;20648318;28;20042;-41
2023/05/08 07:45:43;;;;;;;63.67;27.17;;;14.50;99.90;;;;;;20653495;28;20588;-41
2023/05/08 07:55:44;;;;;;;68.38;26.80;;;14.60;99.90;;;;;;20662555;28;20101;-42
2023/05/08 08:05:45;;;;;;;62.20;26.95;;;14.60;99.90;;;;;;20648358;28;20045;-41
2023/05/08 08:15:46;;;;;;;57.28;24.40;;;14.60;99.90;;;;;;20642517;28;20055;-41
2023/05/08 08:25:47;;;;;;;73.65;28.60;;;14.80;99.90;;;;;;20653361;28;20034;-41
2023/05/08 08:35:48;;;;;;;71.18;30.55;;;14.90;99.90;;;;;;20647211;28;20045;-41
2023/05/08 08:45:49;;;;;;;69.82;29.27;;;15.10;99.90;;;;;;20601275;28;21490;-41
2023/05/08 08:55:55;;;;;;;73.82;31.95;;;15.30;99.90;;;;;;20650952;28;20046;-41
2023/05/08 09:06:00;;;;;;;71.63;30.15;;;15.40;99.90;;;;;;20657397;28;20080;-41
2023/05/08 09:16:02;;;;;;;67.55;33.10;;;15.40;99.90;;;;;;20645496;28;20042;-41
2023/05/08 09:26:03;;;;;;;70.40;31.17;;;15.60;99.90;;;;;;20649480;28;20639;-41
2023/05/08 09:36:05;;;;;;;71.53;29.08;;;15.70;99.90;;;;;;20651736;28;20072;-41
2023/05/08 09:46:20;;;;;;;64.63;28.70;;;15.80;99.90;;;;;;20649446;28;20057;-41
2023/05/08 09:56:31;;;;;;;65.35;32.65;;;15.80;99.90;;;;;;20639025;28;20047;-42
2023/05/08 10:06:35;;;;;;;74.82;34.50;;;16.10;98.90;;;;;;20638804;28;20418;-41
2023/05/08 10:16:42;;;;;;;59.40;29.75;;;16.20;86.80;;;;;;20664937;28;20375;-42
2023/05/08 10:26:55;;;;;;;58.70;29.80;;;16.50;64.00;;;;;;20667451;28;20112;-41
2023/05/08 10:36:56;;;;;;;57.33;30.27;;;16.60;49.10;;;;;;20657470;28;20497;-41
2023/05/08 10:47:04;;;;;;;52.78;26.08;;;16.80;37.70;;;;;;20654960;28;20129;-41
2023/05/08 10:57:10;;;;;;;54.55;26.50;;;17.00;31.70;;;;;;20653978;28;20038;-41
2023/05/08 11:07:11;;;;;;;43.22;21.70;;;17.10;24.80;;;;;;20649574;28;20119;-40
2023/05/08 11:17:12;;;;;;;36.63;19.38;;;18.00;19.10;;;;;;20662236;28;20382;-40
2023/05/08 11:27:14;;;;;;;45.65;21.60;;;18.30;1.00;;;;;;20649924;28;20053;-40
2023/05/08 11:37:20;;;;;;;43.05;20.73;;;18.00;1.40;;;;;;20642410;28;20051;-40
2023/05/08 11:47:23;;;;;;;35.58;17.33;;;18.40;1.00;;;;;;20654468;28;20470;-40
2023/05/08 11:57:24;;;;;;;27.98;14.27;;;18.50;1.00;;;;;;20612742;28;20374;-40
2023/05/08 12:07:46;;;;;;;30.95;15.18;;;19.40;1.00;;;;;;20639942;28;20441;-40
2023/05/08 12:17:47;;;;;;;32.20;14.45;;;18.90;1.00;;;;;;20645325;28;20049;-40
2023/05/08 12:27:48;;;;;;;29.50;14.38;;;18.60;1.00;;;;;;20653110;28;20482;-40
2023/05/08 12:37:51;;;;;;;27.33;14.95;;;18.50;1.00;;;;;;20649386;28;20057;-40
2023/05/08 12:47:57;;;;;;;24.27;12.40;;;19.30;1.00;;;;;;20649486;28;20037;-40
2023/05/08 12:58:06;;;;;;;19.63;10.35;;;20.30;1.00;;;;;;20647432;28;20045;-40
2023/05/08 13:08:11;;;;;;;17.48;9.70;;;20.80;1.00;;;;;;20650160;28;20052;-40
2023/05/08 13:18:14;;;;;;;21.55;12.27;;;21.70;1.00;;;;;;20644719;28;20045;-40
2023/05/08 13:28:15;;;;;;;17.75;10.32;;;21.60;1.00;;;;;;20648489;28;20458;-40
2023/05/08 13:38:21;;;;;;;17.40;10.23;;;21.00;1.00;;;;;;20564326;28;20045;-40
2023/05/08 13:48:22;;;;;;;17.73;9.45;;;21.00;1.00;;;;;;20660995;28;20050;-40
2023/05/08 13:58:24;;;;;;;16.85;9.13;;;20.40;1.00;;;;;;20655617;28;20054;-39
2023/05/08 14:08:25;;;;;;;15.57;9.10;;;20.10;1.00;;;;;;20646470;28;20246;-40
2023/05/08 14:18:26;;;;;;;19.20;10.20;;;20.70;1.00;;;;;;20660136;28;20056;-40
2023/05/08 14:28:27;;;;;;;22.30;11.48;;;20.70;1.00;;;;;;20648099;28;20040;-40
2023/05/08 14:38:28;;;;;;;21.25;11.40;;;20.40;1.00;;;;;;20636341;28;20603;-40
2023/05/08 14:48:41;;;;;;;27.33;11.18;;;20.00;1.00;;;;;;20645575;28;20064;-40
2023/05/08 14:58:42;;;;;;;21.88;12.05;;;20.00;1.00;;;;;;20650696;28;20405;-40
2023/05/08 15:08:44;;;;;;;26.40;14.00;;;19.90;1.00;;;;;;20652289;28;20061;-40
2023/05/08 15:18:45;;;;;;;32.45;13.50;;;19.80;1.00;;;;;;20619742;28;20303;-39
2023/05/08 15:28:47;;;;;;;46.38;17.38;;;19.70;1.00;;;;;;20641451;28;20041;-40
2023/05/08 15:38:48;;;;;;;56.38;22.30;;;19.50;1.00;;;;;;20634532;28;20034;-40
2023/05/08 15:48:49;;;;;;;64.82;24.85;;;19.10;1.00;;;;;;20650998;28;20045;-39
2023/05/08 15:58:51;;;;;;;66.53;27.42;;;19.00;1.00;;;;;;20651597;28;20037;-39
2023/05/08 16:08:52;;;;;;;66.35;23.77;;;18.90;1.00;;;;;;20620142;28;20034;-39
2023/05/08 16:19:14;;;;;;;70.88;24.55;;;18.70;1.00;;;;;;20634149;28;20123;-39
2023/05/08 16:29:35;;;;;;;54.55;21.73;;;18.90;1.00;;;;;;20651533;28;20113;-39
2023/05/08 16:39:36;;;;;;;48.17;19.30;;;19.00;1.00;;;;;;20642965;28;20100;-39
2023/05/08 16:49:39;;;;;;;45.38;20.92;;;18.70;1.00;;;;;;20597224;28;20038;-39
2023/05/08 17:00:00;;;;;;;37.28;16.30;;;18.60;1.00;;;;;;20560587;28;20124;-39
2023/05/08 17:10:01;;;;;;;44.35;17.52;;;18.30;1.00;;;;;;20634376;28;20041;-39
2023/05/08 17:20:04;;;;;;;43.75;18.70;;;18.10;1.00;;;;;;20598317;28;20042;-39
2023/05/08 17:30:10;;;;;;;43.28;18.23;;;18.00;1.00;;;;;;20561609;28;20038;-39
2023/05/08 17:40:13;;;;;;;41.23;19.17;;;17.70;1.00;;;;;;20643694;28;20042;-39
2023/05/08 17:50:14;;;;;;;38.70;17.33;;;17.50;1.00;;;;;;20649046;28;20038;-40
2023/05/08 18:00:19;;;;;;;35.55;16.30;;;17.40;1.00;;;;;;20621562;28;20176;-39
2023/05/08 18:10:25;;;;;;;34.30;15.63;;;17.40;1.00;;;;;;20650919;28;20049;-39
2023/05/08 18:20:26;;;;;;;29.45;14.30;;;17.30;1.00;;;;;;20622329;28;20413;-39
2023/05/08 18:30:27;;;;;;;34.85;17.70;;;17.20;1.00;;;;;;20628501;28;20541;-39
2023/05/08 18:40:48;;;;;;;32.78;14.57;;;17.10;1.00;;;;;;20547864;28;20083;-39
2023/05/08 18:51:09;;;;;;;38.35;16.35;;;16.80;1.00;;;;;;20626616;28;20172;-39
2023/05/08 19:01:18;;;;;;;34.72;17.27;;;16.80;3.50;;;;;;20639026;28;20045;-39
2023/05/08 19:11:39;;;;;;;32.75;13.40;;;16.60;1.70;;;;;;20630517;28;20367;-40
2023/05/08 19:21:40;;;;;;;20.30;10.63;;;16.50;6.00;;;;;;20649696;28;20049;-39
2023/05/08 19:31:41;;;;;;;23.13;11.32;;;16.30;1.00;;;;;;20641124;28;20045;-39
2023/05/08 19:42:03;;;;;;;21.23;10.35;;;16.20;2.50;;;;;;20698873;28;20123;-39
2023/05/08 19:52:23;;;;;;;22.58;10.80;;;16.20;6.30;;;;;;20584327;28;20188;-39
2023/05/08 20:02:45;;;;;;;24.17;11.10;;;16.10;11.20;;;;;;20638428;28;20095;-39
2023/05/08 20:12:46;;;;;;;27.13;12.73;;;16.00;6.70;;;;;;20618480;28;20038;-40
2023/05/08 20:22:47;;;;;;;24.38;11.73;;;15.90;6.10;;;;;;20648791;28;20041;-40
2023/05/08 20:32:48;;;;;;;25.80;10.82;;;15.90;8.20;;;;;;20664884;28;20042;-40
2023/05/08 20:42:49;;;;;;;18.88;9.25;;;15.80;8.60;;;;;;20665102;28;20181;-40
2023/05/08 20:52:50;;;;;;;33.22;11.52;;;15.80;15.70;;;;;;20653231;28;20042;-40
2023/05/08 21:02:51;;;;;;;19.17;10.77;;;15.80;21.70;;;;;;20658362;28;20307;-39
2023/05/08 21:12:52;;;;;;;24.08;11.55;;;15.80;27.30;;;;;;20646774;28;20042;-39
2023/05/08 21:22:54;;;;;;;19.52;8.90;;;15.70;26.50;;;;;;20645303;28;20662;-40
2023/05/08 21:32:55;;;;;;;25.77;11.85;;;15.70;24.50;;;;;;20647006;28;20038;-39
2023/05/08 21:42:56;;;;;;;20.70;10.63;;;15.50;19.80;;;;;;20638710;28;20049;-39
2023/05/08 21:52:57;;;;;;;22.60;10.32;;;15.60;18.30;;;;;;20640006;28;20038;-40
2023/05/08 22:02:58;;;;;;;20.40;9.50;;;15.50;20.40;;;;;;20645763;28;20060;-39
2023/05/08 22:13:00;;;;;;;24.20;10.52;;;15.50;20.50;;;;;;20658678;28;20042;-39
2023/05/08 22:23:01;;;;;;;21.90;10.30;;;15.50;31.50;;;;;;20657108;28;20042;-39
2023/05/08 22:33:02;;;;;;;25.73;11.18;;;15.40;34.00;;;;;;20657067;28;20571;-40
2023/05/08 22:43:03;;;;;;;27.27;12.93;;;15.30;48.20;;;;;;20655488;28;20040;-40
2023/05/08 22:53:06;;;;;;;22.05;11.15;;;15.30;70.10;;;;;;20652163;28;20049;-40
2023/05/08 23:03:08;;;;;;;23.55;12.05;;;15.20;69.60;;;;;;20644610;28;20037;-40
2023/05/08 23:13:09;;;;;;;26.63;14.13;;;15.20;61.50;;;;;;20641039;28;20046;-40
2023/05/08 23:23:10;;;;;;;30.75;14.73;;;15.10;49.10;;;;;;20656642;28;20049;-40
2023/05/08 23:33:11;;;;;;;34.45;16.80;;;15.10;40.90;;;;;;20645546;28;20053;-39
2023/05/08 23:43:12;;;;;;;29.15;14.68;;;15.10;41.90;;;;;;20642674;28;20311;-39
2023/05/08 23:53:14;;;;;;;36.28;15.43;;;15.00;37.50;;;;;;20641267;28;20042;-40
